Time;durP1;ratioP1;P1;durP2;ratioP2;P2;SDS_P1;SDS_P2;PMS_P1;PMS_P2;Temp;Humidity;BMP_temperature;BMP_pressure;BME280_temperature;BME280_humidity;BME280_pressure;Samples;Min_cycle;Max_cycle;Signal;HPM_P1;HPM_P2
2022/11/03 00:00:55;;;;;;;39.05;20.15;;;;;;;17.05;60.48;101176.25;5009367;28;20117;-76
2022/11/03 00:03:20;;;;;;;67.45;38.67;;;;;;;16.79;60.43;101135.34;5009369;28;20041;-75
2022/11/03 00:06:04;;;;;;;100.88;53.83;;;;;;;16.98;60.62;101165.13;5022866;28;20048;-76
2022/11/03 00:08:35;;;;;;;88.35;37.42;;;;;;;17.08;60.64;101159.63;5070950;28;20074;-76
2022/11/03 00:11:05;;;;;;;115.57;62.85;;;;;;;17.03;60.91;101161.97;5071337;28;20025;-76
2022/11/03 00:13:30;;;;;;;92.25;54.55;;;;;;;17.06;60.85;101167.97;5071073;28;20131;-76
2022/11/03 00:15:56;;;;;;;163.52;83.15;;;;;;;16.99;60.90;101166.00;5053452;28;20139;-76
2022/11/03 00:18:21;;;;;;;161.57;80.13;;;;;;;16.99;60.98;101182.31;5071669;28;20059;-75
2022/11/03 00:21:02;;;;;;;152.50;85.70;;;;;;;16.90;61.40;101162.34;5071388;28;20024;-75
2022/11/03 00:23:29;;;;;;;149.07;72.05;;;;;;;16.73;61.43;101149.53;5070962;28;20478;-77
2022/11/03 00:26:02;;;;;;;136.82;70.05;;;;;;;16.88;61.23;101170.63;5071264;28;20024;-77
2022/11/03 00:28:30;;;;;;;131.07;53.40;;;;;;;16.89;61.23;101179.63;5070726;28;20441;-77
2022/11/03 00:30:56;;;;;;;130.82;58.80;;;;;;;16.90;61.22;101175.91;5071021;28;20487;-77
2022/11/03 00:33:25;;;;;;;132.07;56.72;;;;;;;16.96;61.37;101186.19;5070684;28;20033;-76
2022/11/03 00:35:58;;;;;;;112.70;56.15;;;;;;;16.78;61.27;101158.13;5020587;28;20555;-75
2022/11/03 00:38:24;;;;;;;93.80;45.58;;;;;;;16.94;61.29;101182.75;5070656;28;20028;-77
2022/11/03 00:40:58;;;;;;;86.35;46.55;;;;;;;16.94;61.02;101188.19;5070945;28;20031;-77
2022/11/03 00:43:25;;;;;;;85.05;42.03;;;;;;;16.96;61.12;101180.75;5070557;28;20529;-76
2022/11/03 00:45:51;;;;;;;84.55;42.63;;;;;;;16.95;60.97;101173.59;5070641;28;20116;-75
2022/11/03 00:48:29;;;;;;;77.55;41.42;;;;;;;17.02;61.06;101179.28;5070443;28;20501;-77
2022/11/03 00:51:11;;;;;;;45.60;20.98;;;;;;;17.03;60.90;101189.97;5070653;28;20029;-76
2022/11/03 00:53:40;;;;;;;93.05;33.97;;;;;;;17.08;60.93;101187.69;5070434;28;20036;-77
2022/11/03 00:56:09;;;;;;;86.57;29.63;;;;;;;17.09;60.39;101183.97;5070633;28;20515;-76
2022/11/03 00:58:35;;;;;;;42.00;20.75;;;;;;;17.11;60.07;101186.50;5070424;28;20051;-76
2022/11/03 01:01:07;;;;;;;37.42;18.35;;;;;;;17.13;59.67;101185.34;5070361;28;20495;-76
2022/11/03 01:03:35;;;;;;;107.03;20.10;;;;;;;17.15;59.12;101188.78;5074526;28;20029;-76
2022/11/03 01:08:45;;;;;;;53.75;15.65;;;;;;;16.92;59.08;101157.59;5075773;28;20121;-76
2022/11/03 01:14:08;;;;;;;39.28;15.88;;;;;;;17.02;58.94;101182.00;5070147;28;20059;-76
2022/11/03 01:16:33;;;;;;;41.20;15.57;;;;;;;17.07;58.85;101196.81;5069983;28;20082;-76
2022/11/03 01:18:59;;;;;;;33.17;15.70;;;;;;;17.07;58.73;101202.25;5070014;28;20462;-75
2022/11/03 01:21:24;;;;;;;24.65;12.15;;;;;;;17.06;58.40;101195.13;5069910;28;20029;-75
2022/11/03 01:23:50;;;;;;;28.92;12.80;;;;;;;16.97;58.06;101185.16;5069710;28;20534;-78
2022/11/03 01:26:16;;;;;;;28.35;12.45;;;;;;;16.99;58.29;101202.19;5069848;28;20032;-75
2022/11/03 01:28:44;;;;;;;22.00;11.52;;;;;;;16.97;58.75;101201.47;5069988;28;20079;-76
2022/11/03 01:31:13;;;;;;;26.10;12.20;;;;;;;16.93;58.66;101200.06;5034320;28;20048;-76
2022/11/03 01:33:39;;;;;;;29.60;13.70;;;;;;;16.98;58.49;101200.47;5051724;28;20043;-76
2022/11/03 01:36:04;;;;;;;37.42;14.35;;;;;;;17.01;58.34;101189.28;5069689;28;20112;-77
2022/11/03 01:38:31;;;;;;;22.85;13.35;;;;;;;17.02;58.27;101190.16;5069783;28;20100;-76
2022/11/03 01:40:57;;;;;;;37.55;14.27;;;;;;;16.82;58.53;101176.66;5069535;28;20033;-76
2022/11/03 01:43:23;;;;;;;38.60;13.15;;;;;;;17.03;58.64;101206.28;5069893;28;20025;-75
2022/11/03 01:45:56;;;;;;;29.30;12.93;;;;;;;17.02;58.41;101203.72;5069928;28;20024;-77
2022/11/03 01:48:23;;;;;;;28.35;13.88;;;;;;;16.84;58.26;101163.81;5069712;28;20029;-75
2022/11/03 01:50:50;;;;;;;25.65;12.68;;;;;;;17.05;57.81;101196.13;5069397;28;20024;-76
2022/11/03 01:53:17;;;;;;;22.42;12.32;;;;;;;16.96;57.69;101188.03;5069921;28;20036;-76
2022/11/03 01:55:45;;;;;;;28.80;13.05;;;;;;;17.02;58.21;101204.59;5069480;28;20402;-76
2022/11/03 01:58:20;;;;;;;26.27;13.18;;;;;;;16.94;58.13;101211.81;5069823;28;20041;-76
2022/11/03 02:00:49;;;;;;;24.38;12.57;;;;;;;16.97;58.18;101201.47;5069469;28;20024;-77
2022/11/03 02:03:16;;;;;;;22.40;11.88;;;;;;;16.88;58.01;101202.38;5069597;28;20036;-76
2022/11/03 02:05:44;;;;;;;24.33;12.05;;;;;;;17.00;57.72;101206.59;5069647;28;20032;-76
2022/11/03 02:08:15;;;;;;;28.95;12.90;;;;;;;17.03;57.60;101217.16;5069028;28;20426;-76
2022/11/03 02:10:40;;;;;;;26.17;11.90;;;;;;;17.05;57.46;101206.16;5069738;28;20039;-76
2022/11/03 02:13:18;;;;;;;24.63;11.82;;;;;;;16.93;57.20;101172.03;5069265;28;20029;-76
2022/11/03 02:15:49;;;;;;;25.73;12.05;;;;;;;17.13;57.11;101207.09;5071909;28;20021;-77
2022/11/03 02:18:18;;;;;;;37.35;13.60;;;;;;;17.06;57.45;101210.59;5075082;28;20058;-76
2022/11/03 02:20:47;;;;;;;22.15;11.70;;;;;;;17.16;57.35;101219.50;5075801;28;20496;-76
2022/11/03 02:23:28;;;;;;;33.30;12.68;;;;;;;17.16;57.35;101211.38;5018125;28;20400;-75
2022/11/03 02:25:56;;;;;;;26.98;12.40;;;;;;;17.13;57.46;101217.97;5069158;28;20027;-75
2022/11/03 02:28:28;;;;;;;25.20;12.18;;;;;;;17.12;57.63;101227.16;5017985;28;20101;-77
2022/11/03 02:31:17;;;;;;;32.05;12.90;;;;;;;17.12;57.37;101226.28;5073465;28;20030;-77
2022/11/03 02:34:01;;;;;;;30.25;13.50;;;;;;;17.05;57.53;101236.91;5073234;28;20024;-75
2022/11/03 02:36:33;;;;;;;25.80;12.23;;;;;;;17.05;57.35;101236.91;5073147;28;20047;-76
2022/11/03 02:39:10;;;;;;;26.38;13.02;;;;;;;17.12;57.54;101231.72;5055298;28;20036;-76
2022/11/03 02:41:37;;;;;;;25.92;12.20;;;;;;;17.12;57.45;101227.16;5072902;28;20037;-76
2022/11/03 02:44:12;;;;;;;20.40;12.35;;;;;;;17.09;57.56;101227.44;5072920;28;20028;-76
2022/11/03 02:46:40;;;;;;;29.35;13.95;;;;;;;16.87;57.64;101203.41;5072830;28;20029;-77
2022/11/03 02:49:05;;;;;;;27.27;15.30;;;;;;;16.94;57.91;101209.91;5072683;28;20547;-77
2022/11/03 02:51:30;;;;;;;28.92;14.45;;;;;;;17.01;58.31;101232.78;5072872;28;20069;-75
2022/11/03 02:54:07;;;;;;;38.90;16.35;;;;;;;17.02;58.57;101245.38;5072955;28;20025;-76
2022/11/03 02:56:41;;;;;;;40.70;15.55;;;;;;;16.97;58.81;101247.66;5072596;28;20123;-76
2022/11/03 02:59:23;;;;;;;35.80;16.15;;;;;;;16.86;59.00;101243.28;5072778;28;20410;-76
2022/11/03 03:01:57;;;;;;;50.30;18.33;;;;;;;16.76;59.29;101233.47;5072609;28;20024;-76
2022/11/03 03:04:35;;;;;;;38.10;17.38;;;;;;;16.66;59.88;101222.66;5072690;28;20043;-76
2022/11/03 03:07:06;;;;;;;34.17;17.92;;;;;;;16.86;59.67;101253.31;5020903;28;20033;-75
2022/11/03 03:09:45;;;;;;;72.50;19.50;;;;;;;16.81;60.12;101252.91;5072476;28;20182;-74
2022/11/03 03:12:16;;;;;;;43.47;18.83;;;;;;;16.79;60.23;101246.75;5072621;28;20039;-75
2022/11/03 03:14:44;;;;;;;41.17;16.17;;;;;;;16.82;60.32;101251.88;5054830;28;20032;-74
2022/11/03 03:17:17;;;;;;;37.92;19.38;;;;;;;16.83;60.65;101256.31;5072184;28;20043;-73
2022/11/03 03:19:52;;;;;;;59.08;19.75;;;;;;;16.84;60.73;101260.75;5072602;28;20115;-73
2022/11/03 03:22:30;;;;;;;44.45;16.85;;;;;;;16.83;60.89;101259.91;5072216;28;20031;-75
2022/11/03 03:25:01;;;;;;;39.65;18.50;;;;;;;16.77;61.00;101262.34;5072548;28;20051;-75
2022/11/03 03:27:30;;;;;;;86.28;21.42;;;;;;;16.75;61.36;101253.50;5076248;28;20039;-73
2022/11/03 03:30:01;;;;;;;40.95;20.35;;;;;;;16.63;61.51;101247.41;5026423;28;20043;-74
2022/11/03 03:32:31;;;;;;;49.55;18.33;;;;;;;16.62;61.89;101255.69;5074208;28;20086;-74
2022/11/03 03:35:00;;;;;;;44.78;18.30;;;;;;;16.71;61.66;101263.81;5036607;28;20036;-73
2022/11/03 03:37:27;;;;;;;42.83;17.38;;;;;;;16.73;61.49;101271.78;5071955;28;20044;-73
2022/11/03 03:39:56;;;;;;;33.58;17.92;;;;;;;16.73;61.46;101272.66;5071542;28;20105;-76
2022/11/03 03:42:25;;;;;;;61.42;21.08;;;;;;;16.73;61.69;101269.94;5071835;28;20410;-75
2022/11/03 03:44:52;;;;;;;33.63;15.50;;;;;;;16.69;61.50;101279.41;5071646;28;20114;-76
2022/11/03 03:47:27;;;;;;;35.33;16.67;;;;;;;16.66;61.57;101268.84;5071409;28;20448;-75
2022/11/03 03:49:52;;;;;;;34.42;15.88;;;;;;;16.72;61.39;101280.97;5071902;28;20029;-75
2022/11/03 03:52:18;;;;;;;53.78;17.17;;;;;;;16.60;61.43;101258.56;5071442;28;20082;-76
2022/11/03 03:54:44;;;;;;;34.80;16.60;;;;;;;16.67;61.79;101275.09;5071679;28;20587;-73
2022/11/03 03:57:14;;;;;;;41.38;16.13;;;;;;;16.53;61.61;101253.81;5071611;28;20112;-74
2022/11/03 03:59:41;;;;;;;33.20;17.15;;;;;;;16.67;61.98;101280.53;5071413;28;20085;-73
2022/11/03 04:02:06;;;;;;;71.85;17.98;;;;;;;16.62;61.79;101261.13;5071348;28;20047;-74
2022/11/03 04:04:32;;;;;;;37.47;16.35;;;;;;;16.67;61.90;101277.81;5071305;28;20024;-74
2022/11/03 04:09:41;;;;;;;36.90;16.73;;;;;;;16.58;61.59;101267.84;5071418;28;20518;-74
2022/11/03 04:23:20;;;;;;;36.70;15.45;;;;;;;16.47;62.22;101281.56;5008935;28;20064;-74
2022/11/03 04:25:54;;;;;;;33.15;16.50;;;;;;;16.45;62.13;101280.88;5008712;28;20096;-74
2022/11/03 04:28:20;;;;;;;44.70;19.33;;;;;;;16.44;62.02;101284.59;5008841;28;20109;-75
2022/11/03 04:30:45;;;;;;;38.95;16.90;;;;;;;16.37;61.95;101294.31;5008932;28;20116;-76
2022/11/03 04:33:16;;;;;;;37.50;17.88;;;;;;;16.35;62.31;101291.75;5009227;28;20038;-76
2022/11/03 04:35:43;;;;;;;56.85;17.50;;;;;;;16.30;62.19;101292.19;4992293;28;20092;-75
2022/11/03 04:38:21;;;;;;;59.15;19.33;;;;;;;16.33;62.23;101307.31;5008434;28;20041;-74
2022/11/03 04:40:53;;;;;;;27.48;16.85;;;;;;;16.29;62.52;101293.19;5011355;28;20030;-75
2022/11/03 04:43:20;;;;;;;47.42;17.60;;;;;;;16.27;62.24;101299.75;5012503;28;20041;-76
2022/11/03 04:45:47;;;;;;;69.18;18.67;;;;;;;16.12;62.33;101279.47;5011762;28;20125;-76
2022/11/03 04:48:23;;;;;;;64.45;21.48;;;;;;;16.24;62.68;101295.47;5008268;28;20048;-76
2022/11/03 04:50:52;;;;;;;93.32;21.80;;;;;;;16.28;62.08;101307.75;5012270;28;20044;-75
2022/11/03 04:53:20;;;;;;;45.38;20.23;;;;;;;16.12;62.91;101307.47;5069440;28;20487;-74
2022/11/03 04:55:47;;;;;;;39.72;18.02;;;;;;;16.05;63.09;101303.66;5070115;28;20130;-77
2022/11/03 04:58:12;;;;;;;123.13;22.30;;;;;;;16.12;63.04;101310.19;5072798;28;20016;-75
2022/11/03 05:00:38;;;;;;;65.88;19.85;;;;;;;16.15;62.79;101318.06;5079502;28;20111;-74
2022/11/03 05:03:04;;;;;;;60.13;19.88;;;;;;;16.16;62.48;101317.06;5087300;28;20112;-75
2022/11/03 05:05:29;;;;;;;59.35;21.52;;;;;;;16.04;62.78;101310.06;5090379;28;20479;-78
2022/11/03 05:07:57;;;;;;;61.25;19.55;;;;;;;16.00;63.00;101330.34;5089777;28;20054;-76
2022/11/03 05:10:28;;;;;;;140.27;26.55;;;;;;;16.04;63.29;101339.91;5090263;28;20048;-78
2022/11/03 05:12:54;;;;;;;109.43;24.35;;;;;;;15.96;63.11;101337.03;5089804;28;20032;-79
2022/11/03 05:15:41;;;;;;;71.50;20.00;;;;;;;16.07;63.57;101346.91;5090223;28;20128;-78
2022/11/03 05:18:30;;;;;;;341.58;43.58;;;;;;;16.02;63.34;101341.94;5089878;28;20024;-74
2022/11/03 05:21:02;;;;;;;113.18;25.77;;;;;;;16.04;63.35;101353.50;5089804;28;20035;-77
2022/11/03 05:23:35;;;;;;;161.75;26.38;;;;;;;16.02;63.51;101350.06;5039633;28;20040;-78
2022/11/03 05:26:01;;;;;;;97.25;25.25;;;;;;;15.89;64.40;101359.47;5090117;28;20031;-77
2022/11/03 05:28:32;;;;;;;259.10;37.40;;;;;;;16.08;64.06;101365.78;5089922;28;20393;-75
2022/11/03 05:30:57;;;;;;;167.50;31.90;;;;;;;16.12;63.70;101371.75;5089808;28;20020;-79
2022/11/03 05:33:35;;;;;;;252.48;39.53;;;;;;;16.17;63.66;101372.22;5089498;28;20042;-77
2022/11/03 05:36:10;;;;;;;218.32;37.33;;;;;;;16.15;63.85;101372.34;5071550;28;20028;-75
2022/11/03 05:38:35;;;;;;;485.05;55.75;;;;;;;16.12;64.01;101367.19;5089615;28;20462;-78
2022/11/03 05:41:01;;;;;;;235.73;35.15;;;;;;;16.24;63.91;101385.03;5037176;28;20051;-76
2022/11/03 05:43:27;;;;;;;139.43;30.80;;;;;;;16.26;63.78;101385.78;5089991;28;20104;-76
2022/11/03 05:45:57;;;;;;;268.83;36.88;;;;;;;16.28;63.91;101386.47;5089754;28;20526;-75
2022/11/03 05:48:29;;;;;;;85.00;25.70;;;;;;;16.18;64.51;101399.19;5089508;28;20036;-75
2022/11/03 05:50:59;;;;;;;;;;;;;;;16.10;64.88;101399.06;5090901;28;20025;-73
2022/11/03 05:53:42;;;;;;;101.90;27.88;;;;;;;16.17;65.06;101402.06;5098587;28;19936;-74
2022/11/03 05:56:17;;;;;;;87.60;27.52;;;;;;;16.22;65.07;101400.63;5093717;28;20028;-74
2022/11/03 05:58:44;;;;;;;63.05;23.48;;;;;;;16.23;65.06;101401.50;5090007;28;20024;-74
2022/11/03 06:01:28;;;;;;;49.80;25.13;;;;;;;16.33;64.82;101396.91;5089606;28;20028;-74
2022/11/03 06:03:53;;;;;;;60.95;24.60;;;;;;;16.32;64.54;101396.06;5089083;28;20020;-74
2022/11/03 06:06:26;;;;;;;419.63;50.65;;;;;;;16.34;64.95;101388.63;5089164;28;20034;-74
2022/11/03 06:08:52;;;;;;;176.85;32.80;;;;;;;16.47;64.67;101390.19;5086019;28;20056;-74
2022/11/03 06:11:35;;;;;;;92.03;27.27;;;;;;;16.54;64.43;101394.94;5068639;28;20388;-74
2022/11/03 06:14:01;;;;;;;58.92;24.52;;;;;;;16.52;64.28;101391.47;5068964;28;20487;-76
2022/11/03 06:16:38;;;;;;;70.00;24.80;;;;;;;16.67;64.19;101406.34;5067494;28;20035;-78
2022/11/03 06:19:17;;;;;;;101.65;26.23;;;;;;;16.73;64.07;101410.34;5068238;28;20029;-77
2022/11/03 06:21:44;;;;;;;76.55;26.52;;;;;;;16.72;63.88;101408.66;5067811;28;20039;-77
2022/11/03 06:24:12;;;;;;;61.53;24.40;;;;;;;16.76;63.99;101412.75;5068635;28;20043;-77
2022/11/03 06:26:38;;;;;;;99.53;25.63;;;;;;;16.77;64.15;101411.78;5016620;28;20107;-76
2022/11/03 06:29:03;;;;;;;46.53;23.92;;;;;;;16.76;64.05;101407.31;5068205;28;20055;-77
2022/11/03 06:31:32;;;;;;;67.88;25.42;;;;;;;16.69;64.00;101398.94;5068243;28;20147;-77
2022/11/03 06:33:57;;;;;;;66.00;23.45;;;;;;;16.89;63.47;101421.47;5068224;28;20043;-77
2022/11/03 06:36:35;;;;;;;151.80;29.83;;;;;;;16.84;63.51;101416.50;5068721;28;20025;-76
2022/11/03 06:39:03;;;;;;;47.05;24.52;;;;;;;16.96;62.94;101419.91;5068119;28;20704;-75
2022/11/03 06:41:34;;;;;;;53.42;23.20;;;;;;;17.00;63.09;101434.88;5068544;28;20032;-76
2022/11/03 06:44:17;;;;;;;88.82;26.98;;;;;;;17.09;62.98;101427.72;5068338;28;20120;-76
2022/11/03 06:46:43;;;;;;;101.13;22.98;;;;;;;17.16;62.81;101423.41;5068095;28;20106;-76
2022/11/03 06:49:33;;;;;;;73.90;25.55;;;;;;;17.19;62.51;101415.81;5068445;28;20185;-76
2022/11/03 06:52:05;;;;;;;112.07;28.25;;;;;;;17.28;62.45;101422.22;5068367;28;20025;-77
2022/11/03 06:54:30;;;;;;;50.85;24.50;;;;;;;17.35;62.08;101418.75;5068222;28;20040;-77
2022/11/03 06:56:55;;;;;;;120.40;26.05;;;;;;;17.40;62.10;101421.88;5068604;28;20028;-77
2022/11/03 06:59:21;;;;;;;115.95;27.83;;;;;;;17.40;61.92;101413.72;5069004;28;20448;-76
2022/11/03 07:01:53;;;;;;;75.13;29.45;;;;;;;17.37;61.63;101400.41;5068641;28;20030;-76
2022/11/03 07:04:27;;;;;;;108.60;27.85;;;;;;;17.62;61.33;101430.69;5076894;28;20459;-75
2022/11/03 07:06:58;;;;;;;70.85;29.88;;;;;;;17.62;61.15;101426.09;5077220;28;20033;-76
2022/11/03 07:09:27;;;;;;;75.95;28.00;;;;;;;17.57;61.23;101417.56;5074276;28;20060;-75
2022/11/03 07:11:57;;;;;;;68.93;27.02;;;;;;;17.62;61.14;101425.25;5068329;28;20090;-78
2022/11/03 07:14:31;;;;;;;62.60;26.40;;;;;;;17.61;61.10;101429.84;5068301;28;20056;-76
2022/11/03 07:17:04;;;;;;;63.63;28.20;;;;;;;17.48;61.17;101401.25;5071591;28;20098;-78
2022/11/03 07:19:38;;;;;;;73.32;27.30;;;;;;;17.62;61.20;101427.97;5071939;28;20674;-77
2022/11/03 07:22:13;;;;;;;408.60;50.67;;;;;;;17.65;61.22;101414.94;5072061;28;20078;-77
2022/11/03 07:24:42;;;;;;;149.52;29.08;;;;;;;17.69;61.12;101432.66;5072117;28;20407;-77
2022/11/03 07:27:25;;;;;;;172.20;32.13;;;;;;;17.68;61.25;101435.53;5072084;28;20035;-76
2022/11/03 07:29:56;;;;;;;70.22;24.23;;;;;;;17.69;60.80;101431.81;5071820;28;20051;-76
2022/11/03 07:32:24;;;;;;;59.45;22.95;;;;;;;17.68;60.91;101433.66;5071623;28;20113;-78
2022/11/03 07:34:52;;;;;;;58.03;24.38;;;;;;;17.69;60.75;101437.25;5071741;28;20503;-76
2022/11/03 07:37:21;;;;;;;58.97;24.73;;;;;;;17.69;60.79;101437.25;5071918;28;20024;-76
2022/11/03 07:39:47;;;;;;;61.28;25.15;;;;;;;17.66;60.68;101432.97;5071664;28;20032;-77
2022/11/03 07:42:24;;;;;;;55.28;29.63;;;;;;;17.61;61.06;101435.31;5071510;28;20028;-77
2022/11/03 07:44:51;;;;;;;80.93;27.73;;;;;;;17.64;61.13;101439.56;5071014;28;20035;-77
2022/11/03 07:47:24;;;;;;;74.72;26.50;;;;;;;17.71;61.02;101443.38;5071293;28;20032;-77
2022/11/03 07:49:50;;;;;;;58.78;27.13;;;;;;;17.75;60.96;101442.09;5035468;28;20135;-75
2022/11/03 07:52:19;;;;;;;53.38;24.45;;;;;;;17.72;60.78;101436.94;5071523;28;20407;-77
2022/11/03 07:54:45;;;;;;;163.75;35.55;;;;;;;17.85;60.78;101432.88;5071107;28;20757;-76
2022/11/03 07:57:30;;;;;;;85.55;25.00;;;;;;;18.00;60.64;101429.63;5071284;28;20034;-76
2022/11/03 08:00:06;;;;;;;53.10;24.20;;;;;;;18.19;60.36;101430.38;5071225;28;20392;-76
2022/11/03 08:02:35;;;;;;;48.53;22.33;;;;;;;18.29;59.33;101424.81;5071221;28;20023;-77
2022/11/03 08:05:01;;;;;;;35.78;12.43;;;;;;;18.56;58.43;101427.50;5070977;28;20123;-77
2022/11/03 08:07:27;;;;;;;55.38;19.45;;;;;;;18.82;56.59;101433.00;5071086;28;20111;-76
2022/11/03 08:09:53;;;;;;;456.70;50.20;;;;;;;19.12;55.63;101429.81;5070577;28;20403;-76
2022/11/03 08:12:18;;;;;;;35.95;10.57;;;;;;;19.13;54.36;101397.94;5070815;28;20032;-76
2022/11/03 08:14:44;;;;;;;116.75;17.10;;;;;;;19.54;54.02;101430.75;5073970;28;20017;-75
2022/11/03 08:17:09;;;;;;;44.53;19.70;;;;;;;19.61;54.56;101430.09;5072777;28;20072;-75
2022/11/03 08:19:35;;;;;;;82.00;24.52;;;;;;;19.65;54.73;101423.31;5074527;28;20064;-77
2022/11/03 08:22:00;;;;;;;54.60;22.33;;;;;;;19.69;54.82;101438.34;5071074;28;20467;-76
2022/11/03 08:24:26;;;;;;;64.95;19.95;;;;;;;19.82;53.80;101436.00;5070593;28;20506;-77
2022/11/03 08:26:51;;;;;;;94.93;18.55;;;;;;;19.94;53.17;101442.84;5070873;28;20115;-76
2022/11/03 08:29:17;;;;;;;228.45;20.02;;;;;;;20.04;51.62;101436.25;5070863;28;20309;-75
2022/11/03 08:31:43;;;;;;;149.00;18.83;;;;;;;20.17;50.82;101426.72;5070189;28;20656;-76
2022/11/03 08:34:09;;;;;;;92.82;14.30;;;;;;;20.13;50.55;101442.59;5070470;28;20028;-76
2022/11/03 08:36:34;;;;;;;50.55;10.95;;;;;;;20.11;50.48;101428.25;5034592;28;20051;-75
2022/11/03 08:39:00;;;;;;;34.47;10.77;;;;;;;20.18;50.56;101431.19;5051451;28;20052;-76
2022/11/03 08:41:25;;;;;;;185.63;19.23;;;;;;;20.27;49.98;101432.94;5070474;28;20028;-75
2022/11/03 08:43:51;;;;;;;28.30;10.23;;;;;;;20.27;49.77;101428.31;5070482;28;20050;-76
2022/11/03 08:46:16;;;;;;;34.70;11.13;;;;;;;20.39;49.73;101432.44;5070410;28;20033;-76
2022/11/03 08:48:42;;;;;;;35.22;12.55;;;;;;;20.47;49.50;101421.50;5070228;28;20032;-76
2022/11/03 08:51:09;;;;;;;410.10;35.80;;;;;;;20.40;49.63;101390.41;5070231;28;20021;-74
2022/11/03 08:53:35;;;;;;;135.82;18.90;;;;;;;20.58;50.14;101426.63;5069772;28;20099;-75
2022/11/03 08:56:00;;;;;;;41.33;13.77;;;;;;;20.64;50.22;101414.16;5070237;28;20028;-74
2022/11/03 08:58:26;;;;;;;46.83;15.57;;;;;;;20.74;50.16;101417.56;5070306;28;20024;-76
2022/11/03 09:00:51;;;;;;;118.90;19.55;;;;;;;20.77;50.63;101408.16;5069847;28;20041;-75
2022/11/03 09:03:16;;;;;;;41.53;15.60;;;;;;;20.74;51.13;101413.97;5070043;28;20063;-76
2022/11/03 09:05:42;;;;;;;92.47;18.83;;;;;;;20.60;51.81;101413.66;5082152;28;20192;-75
2022/11/03 09:08:08;;;;;;;168.55;20.98;;;;;;;20.55;52.20;101410.56;5069589;28;20044;-75
2022/11/03 09:10:33;;;;;;;68.82;18.10;;;;;;;20.02;53.77;101418.31;5068400;28;20036;-75
2022/11/03 09:12:59;;;;;;;113.25;20.35;;;;;;;20.01;54.49;101416.59;5069955;28;20033;-75
2022/11/03 09:15:24;;;;;;;66.63;16.83;;;;;;;19.60;55.27;101382.03;5070536;28;20187;-75
2022/11/03 09:17:49;;;;;;;87.93;19.65;;;;;;;19.57;56.44;101409.63;5070338;28;20090;-76
2022/11/03 09:20:15;;;;;;;45.53;19.50;;;;;;;19.55;56.99;101420.69;5018149;28;20049;-78
2022/11/03 09:22:40;;;;;;;75.30;22.15;;;;;;;19.62;56.57;101413.59;5070401;28;20051;-77
2022/11/03 09:25:06;;;;;;;42.10;15.68;;;;;;;19.36;56.45;101389.03;5074644;28;20085;-79
2022/11/03 09:27:32;;;;;;;74.60;21.40;;;;;;;19.36;57.06;101399.09;5079579;28;20107;-76
2022/11/03 09:29:57;;;;;;;55.00;17.25;;;;;;;19.32;57.52;101414.94;5087121;28;20035;-77
2022/11/03 09:32:23;;;;;;;44.75;15.93;;;;;;;19.27;57.37;101395.47;5092430;28;20031;-76
2022/11/03 09:34:48;;;;;;;375.40;41.55;;;;;;;19.38;57.28;101397.94;5090634;28;20024;-78
2022/11/03 09:37:14;;;;;;;125.57;19.60;;;;;;;19.31;57.13;101374.19;5090313;28;20061;-77
2022/11/03 09:39:40;;;;;;;116.72;20.40;;;;;;;19.66;57.28;101395.00;5090083;28;20031;-77
2022/11/03 09:42:06;;;;;;;98.32;18.92;;;;;;;19.82;56.67;101398.63;5090482;28;20091;-77
2022/11/03 09:44:34;;;;;;;48.45;16.48;;;;;;;19.83;56.44;101392.16;5090651;28;20028;-78
2022/11/03 09:47:00;;;;;;;125.75;19.95;;;;;;;19.46;56.67;101367.13;5090501;28;20082;-83
2022/11/03 09:49:29;;;;;;;62.35;17.10;;;;;;;19.66;57.15;101395.00;5090905;28;20063;-77
2022/11/03 09:51:55;;;;;;;41.25;16.40;;;;;;;19.63;57.06;101384.41;5089909;28;20028;-76
2022/11/03 09:54:21;;;;;;;33.10;14.63;;;;;;;19.35;57.54;101376.44;5090302;28;20498;-78
2022/11/03 09:56:47;;;;;;;43.63;15.13;;;;;;;19.36;57.36;101383.56;5089714;28;20027;-76
2022/11/03 09:59:18;;;;;;;49.85;17.48;;;;;;;19.44;57.58;101358.25;5090094;28;20024;-77
2022/11/03 10:01:45;;;;;;;85.53;17.13;;;;;;;19.81;56.86;101374.25;5090145;28;20459;-77
2022/11/03 10:04:11;;;;;;;52.90;15.68;;;;;;;19.74;56.54;101379.50;5089589;28;20034;-76
2022/11/03 10:06:38;;;;;;;57.83;16.10;;;;;;;19.81;56.55;101380.56;5089851;28;20028;-77
2022/11/03 10:09:07;;;;;;;40.33;16.17;;;;;;;19.82;56.56;101375.94;5089221;28;20063;-78
2022/11/03 10:11:34;;;;;;;154.18;20.92;;;;;;;20.04;56.55;101378.91;5090051;28;20024;-77
2022/11/03 10:13:59;;;;;;;61.60;15.32;;;;;;;20.04;56.09;101358.91;5071450;28;20024;-77
2022/11/03 10:16:26;;;;;;;72.55;16.70;;;;;;;20.31;55.77;101357.78;5088886;28;20043;-78
2022/11/03 10:18:51;;;;;;;127.10;19.55;;;;;;;20.26;55.91;101361.03;5069391;28;20060;-78
2022/11/03 10:21:19;;;;;;;128.10;18.98;;;;;;;20.30;55.41;101324.16;5069574;28;20067;-76
2022/11/03 10:23:45;;;;;;;51.38;15.35;;;;;;;20.66;54.65;101357.44;5069071;28;20136;-79
2022/11/03 10:26:17;;;;;;;138.68;21.75;;;;;;;20.56;55.44;101357.63;5069425;28;20017;-77
2022/11/03 10:29:01;;;;;;;54.50;15.48;;;;;;;20.44;55.40;101326.19;5069336;28;20024;-77
2022/11/03 10:31:37;;;;;;;42.75;14.48;;;;;;;20.28;55.53;101361.72;5069202;28;20451;-79
2022/11/03 10:34:04;;;;;;;43.85;14.60;;;;;;;20.23;56.05;101344.09;5069385;28;20398;-78
2022/11/03 10:36:32;;;;;;;28.73;14.25;;;;;;;20.26;55.70;101350.09;5078313;28;20028;-78
2022/11/03 10:39:00;;;;;;;57.75;16.33;;;;;;;20.30;55.78;101334.25;5106123;28;20049;-78
2022/11/03 10:41:30;;;;;;;48.50;14.98;;;;;;;20.60;55.21;101345.31;5102114;28;20043;-78
2022/11/03 10:43:59;;;;;;;37.65;13.93;;;;;;;20.82;54.54;101345.63;5073583;28;20111;-76
2022/11/03 10:46:24;;;;;;;30.75;14.32;;;;;;;21.02;53.86;101341.47;5089408;28;20511;-78
2022/11/03 10:49:11;;;;;;;51.40;13.50;;;;;;;21.33;53.08;101339.72;5089197;28;20035;-76
2022/11/03 10:51:37;;;;;;;31.30;13.95;;;;;;;21.39;52.95;101338.13;5093103;28;20101;-76
2022/11/03 10:54:04;;;;;;;57.42;15.82;;;;;;;21.19;53.28;101332.25;5093168;28;20423;-77
2022/11/03 10:56:31;;;;;;;86.68;18.35;;;;;;;20.98;53.62;101299.09;5092932;28;20032;-77
2022/11/03 10:58:59;;;;;;;72.93;17.10;;;;;;;21.27;52.95;101320.41;5092928;28;20048;-78
2022/11/03 11:01:25;;;;;;;42.75;15.70;;;;;;;21.44;52.89;101320.13;5074617;28;20520;-75
2022/11/03 11:03:50;;;;;;;48.55;16.27;;;;;;;21.32;52.78;101326.19;5093129;28;20028;-77
2022/11/03 11:06:23;;;;;;;47.22;17.98;;;;;;;21.31;53.06;101308.94;5093008;28;20487;-78
2022/11/03 11:08:56;;;;;;;46.67;16.13;;;;;;;21.47;52.57;101311.56;5092215;28;20068;-74
2022/11/03 11:11:22;;;;;;;31.25;13.15;;;;;;;21.43;51.98;101306.66;5092078;28;20032;-75
2022/11/03 11:14:35;;;;;;;161.52;21.80;;;;;;;21.48;52.47;101310.56;5092474;28;20032;-75
2022/11/03 11:17:01;;;;;;;249.27;26.92;;;;;;;21.39;52.09;101302.56;5056115;28;20119;-74
2022/11/03 11:19:28;;;;;;;56.45;13.27;;;;;;;21.18;52.64;101300.44;5092172;28;20046;-76
2022/11/03 11:21:53;;;;;;;44.28;13.50;;;;;;;21.10;53.06;101298.56;5092098;28;20081;-75
2022/11/03 11:24:44;;;;;;;56.15;14.38;;;;;;;21.01;53.38;101296.00;5092246;28;20032;-76
2022/11/03 11:27:31;;;;;;;378.23;38.13;;;;;;;21.00;53.38;101299.78;5092127;28;20032;-74
2022/11/03 11:30:03;;;;;;;44.25;13.95;;;;;;;21.10;53.37;101295.84;5087352;28;20028;-76
2022/11/03 11:32:41;;;;;;;53.72;12.23;;;;;;;20.94;53.29;101295.00;5071762;28;20052;-75
2022/11/03 11:35:16;;;;;;;96.30;16.38;;;;;;;20.72;53.74;101280.22;5070928;28;20043;-74
2022/11/03 11:37:42;;;;;;;280.58;30.05;;;;;;;20.75;54.11;101290.78;5071377;28;20036;-76